Delta State University, Mississippi
Current Conditions -  °F | °C
As of 11:15 PM on Monday 22 Dec 2014 (Local Time) from KRNV Reporting Station
Haze Haze  
Wind Chill: 57°   Ceiling: 7000
Heat Index: 57°   Visibility: 2.5mi
Dew Point: 57°   Wind: 6mph
Humidity: 100%   Direction: 170°S
Pressure: 29.66"   Gusts: NA
Location:  33.7453°N, 90.733°W
Report Text: KRNV 230515Z AUTO 17005KT 2 1/2SM BR OVC070 14/14 A2966 RMK AO2 T01380138
Loading
Personal Weather Stations






























Interactive Weather Map New forecast layout! Learn more

10-Day Weather Forecast

Advertisements
Track Severe Weather on mobile